sensor_id;sensor_type;location;lat;lon;timestamp;pressure;altitude;pressure_sealevel;temperature;humidity
24160;BME280;62385;41.594;23.808;2023-05-08T00:01:28;95719.28;;;13.29;74.94
24160;BME280;62385;41.594;23.808;2023-05-08T00:03:54;95713.31;;;13.27;74.56
24160;BME280;62385;41.594;23.808;2023-05-08T00:06:20;95715.41;;;12.94;75.78
24160;BME280;62385;41.594;23.808;2023-05-08T00:08:45;95706.59;;;12.71;76.89
24160;BME280;62385;41.594;23.808;2023-05-08T00:11:15;95713.47;;;12.43;78.32
24160;BME280;62385;41.594;23.808;2023-05-08T00:13:42;95701.97;;;12.42;78.32
24160;BME280;62385;41.594;23.808;2023-05-08T00:16:11;95705.09;;;12.54;78.29
24160;BME280;62385;41.594;23.808;2023-05-08T00:18:38;95707.69;;;12.62;78.09
24160;BME280;62385;41.594;23.808;2023-05-08T00:21:07;95705.19;;;12.83;77.59
24160;BME280;62385;41.594;23.808;2023-05-08T00:23:33;95682.91;;;12.76;77.67
24160;BME280;62385;41.594;23.808;2023-05-08T00:25:59;95695.69;;;13.04;76.58
24160;BME280;62385;41.594;23.808;2023-05-08T00:28:24;95715.41;;;13.17;76.47
24160;BME280;62385;41.594;23.808;2023-05-08T00:30:50;95715.81;;;13.29;75.45
24160;BME280;62385;41.594;23.808;2023-05-08T00:33:16;95720.69;;;13.40;75.47
24160;BME280;62385;41.594;23.808;2023-05-08T00:35:43;95710.47;;;13.29;75.86
24160;BME280;62385;41.594;23.808;2023-05-08T00:38:08;95717.34;;;13.23;75.99
24160;BME280;62385;41.594;23.808;2023-05-08T00:40:34;95701.88;;;12.81;77.67
24160;BME280;62385;41.594;23.808;2023-05-08T00:43:01;95703.06;;;12.79;77.91
24160;BME280;62385;41.594;23.808;2023-05-08T00:45:33;95699.31;;;12.88;78.38
24160;BME280;62385;41.594;23.808;2023-05-08T00:48:01;95709.28;;;13.09;77.17
24160;BME280;62385;41.594;23.808;2023-05-08T00:50:29;95703.94;;;13.09;76.42
24160;BME280;62385;41.594;23.808;2023-05-08T00:52:55;95712.78;;;13.32;75.68
24160;BME280;62385;41.594;23.808;2023-05-08T00:55:21;95705.72;;;12.79;77.34
24160;BME280;62385;41.594;23.808;2023-05-08T00:57:47;95706.66;;;12.86;78.06
24160;BME280;62385;41.594;23.808;2023-05-08T01:00:18;95706.50;;;12.87;77.26
24160;BME280;62385;41.594;23.808;2023-05-08T01:02:46;95703.84;;;13.25;76.67
24160;BME280;62385;41.594;23.808;2023-05-08T01:05:12;95703.25;;;13.15;76.50
24160;BME280;62385;41.594;23.808;2023-05-08T01:07:38;95708.88;;;13.20;76.97
24160;BME280;62385;41.594;23.808;2023-05-08T01:10:04;95691.91;;;13.21;76.73
24160;BME280;62385;41.594;23.808;2023-05-08T01:12:55;95702.31;;;13.08;77.22
24160;BME280;62385;41.594;23.808;2023-05-08T01:15:33;95708.88;;;12.97;77.46
24160;BME280;62385;41.594;23.808;2023-05-08T01:18:24;95707.34;;;12.80;78.50
24160;BME280;62385;41.594;23.808;2023-05-08T01:24:24;95709.03;;;12.81;78.15
24160;BME280;62385;41.594;23.808;2023-05-08T01:30:32;95705.03;;;12.62;78.79
24160;BME280;62385;41.594;23.808;2023-05-08T01:33:19;95699.69;;;12.39;79.15
24160;BME280;62385;41.594;23.808;2023-05-08T01:35:55;95700.69;;;12.61;78.15
24160;BME280;62385;41.594;23.808;2023-05-08T01:38:33;95701.97;;;12.42;78.92
24160;BME280;62385;41.594;23.808;2023-05-08T02:03:36;95702.06;;;12.03;80.30
24160;BME280;62385;41.594;23.808;2023-05-08T02:06:08;95706.63;;;12.18;79.48
24160;BME280;62385;41.594;23.808;2023-05-08T02:08:35;95702.69;;;12.06;79.51
24160;BME280;62385;41.594;23.808;2023-05-08T02:11:03;95693.88;;;12.05;79.31
24160;BME280;62385;41.594;23.808;2023-05-08T02:13:33;95694.59;;;11.99;79.08
24160;BME280;62385;41.594;23.808;2023-05-08T02:15:59;95702.78;;;11.89;79.45
24160;BME280;62385;41.594;23.808;2023-05-08T02:18:26;95695.81;;;11.41;79.79
24160;BME280;62385;41.594;23.808;2023-05-08T02:20:54;95703.94;;;11.40;80.54
24160;BME280;62385;41.594;23.808;2023-05-08T02:23:24;95701.13;;;11.41;79.85
24160;BME280;62385;41.594;23.808;2023-05-08T02:25:51;95706.63;;;11.24;80.51
24160;BME280;62385;41.594;23.808;2023-05-08T02:28:18;95706.16;;;11.12;80.17
24160;BME280;62385;41.594;23.808;2023-05-08T02:30:46;95701.69;;;11.13;80.51
24160;BME280;62385;41.594;23.808;2023-05-08T02:33:14;95688.44;;;10.72;80.79
24160;BME280;62385;41.594;23.808;2023-05-08T02:35:43;95698.72;;;10.83;80.95
24160;BME280;62385;41.594;23.808;2023-05-08T02:38:11;95683.94;;;10.32;81.67
24160;BME280;62385;41.594;23.808;2023-05-08T02:40:41;95700.06;;;10.63;81.54
24160;BME280;62385;41.594;23.808;2023-05-08T02:43:10;95708.03;;;10.71;80.39
24160;BME280;62385;41.594;23.808;2023-05-08T02:45:42;95703.38;;;10.57;80.89
24160;BME280;62385;41.594;23.808;2023-05-08T02:48:13;95698.72;;;10.59;81.01
24160;BME280;62385;41.594;23.808;2023-05-08T02:50:57;95707.69;;;10.42;80.63
24160;BME280;62385;41.594;23.808;2023-05-08T02:53:41;95705.00;;;10.26;80.91
24160;BME280;62385;41.594;23.808;2023-05-08T02:56:12;95702.00;;;10.21;81.23
24160;BME280;62385;41.594;23.808;2023-05-08T02:58:46;95703.63;;;10.13;81.75
24160;BME280;62385;41.594;23.808;2023-05-08T03:01:30;95709.31;;;10.27;82.00
24160;BME280;62385;41.594;23.808;2023-05-08T03:04:04;95701.69;;;10.48;80.92
24160;BME280;62385;41.594;23.808;2023-05-08T03:06:41;95703.38;;;10.57;81.19
24160;BME280;62385;41.594;23.808;2023-05-08T03:09:18;95693.91;;;10.46;81.35
24160;BME280;62385;41.594;23.808;2023-05-08T03:11:48;95692.41;;;10.36;81.36
24160;BME280;62385;41.594;23.808;2023-05-08T03:14:18;95687.28;;;10.42;81.15
24160;BME280;62385;41.594;23.808;2023-05-08T03:16:46;95691.41;;;10.61;81.45
24160;BME280;62385;41.594;23.808;2023-05-08T03:19:27;95692.91;;;11.04;79.42
24160;BME280;62385;41.594;23.808;2023-05-08T03:21:57;95696.19;;;11.14;78.86
24160;BME280;62385;41.594;23.808;2023-05-08T03:24:26;95700.69;;;11.14;78.38
24160;BME280;62385;41.594;23.808;2023-05-08T03:26:55;95705.63;;;11.33;78.05
24160;BME280;62385;41.594;23.808;2023-05-08T03:29:22;95706.66;;;11.07;78.43
24160;BME280;62385;41.594;23.808;2023-05-08T03:31:50;95712.84;;;10.92;79.40
24160;BME280;62385;41.594;23.808;2023-05-08T03:34:18;95708.66;;;10.97;79.03
24160;BME280;62385;41.594;23.808;2023-05-08T03:36:45;95713.47;;;11.02;78.64
24160;BME280;62385;41.594;23.808;2023-05-08T03:39:11;95703.00;;;11.17;78.10
24160;BME280;62385;41.594;23.808;2023-05-08T03:41:38;95719.13;;;10.99;78.05
24160;BME280;62385;41.594;23.808;2023-05-08T03:44:05;95724.91;;;11.19;78.06
24160;BME280;62385;41.594;23.808;2023-05-08T03:46:33;95708.81;;;11.20;78.03
24160;BME280;62385;41.594;23.808;2023-05-08T03:49:03;95716.22;;;11.41;76.86
24160;BME280;62385;41.594;23.808;2023-05-08T03:51:30;95710.25;;;11.39;77.33
24160;BME280;62385;41.594;23.808;2023-05-08T03:53:56;95720.66;;;11.56;76.87
24160;BME280;62385;41.594;23.808;2023-05-08T03:56:23;95730.59;;;11.79;76.23
24160;BME280;62385;41.594;23.808;2023-05-08T03:59:17;95726.06;;;11.95;76.30
24160;BME280;62385;41.594;23.808;2023-05-08T04:01:58;95731.75;;;12.15;75.40
24160;BME280;62385;41.594;23.808;2023-05-08T04:04:43;95736.84;;;12.33;75.56
24160;BME280;62385;41.594;23.808;2023-05-08T04:07:24;95736.13;;;12.08;75.99
24160;BME280;62385;41.594;23.808;2023-05-08T04:13:15;95733.94;;;11.73;77.33
24160;BME280;62385;41.594;23.808;2023-05-08T04:16:11;95729.34;;;11.50;78.58
24160;BME280;62385;41.594;23.808;2023-05-08T04:19:09;95724.00;;;11.58;78.98
24160;BME280;62385;41.594;23.808;2023-05-08T04:21:57;95727.66;;;11.57;79.17
24160;BME280;62385;41.594;23.808;2023-05-08T04:24:42;95729.09;;;11.76;78.56
24160;BME280;62385;41.594;23.808;2023-05-08T04:28:24;95724.09;;;12.20;77.24
24160;BME280;62385;41.594;23.808;2023-05-08T04:30:56;95724.69;;;12.30;77.24
24160;BME280;62385;41.594;23.808;2023-05-08T04:33:23;95729.81;;;12.63;75.56
24160;BME280;62385;41.594;23.808;2023-05-08T04:35:49;95728.25;;;12.68;75.77
24160;BME280;62385;41.594;23.808;2023-05-08T04:38:17;95728.03;;;12.78;75.93
24160;BME280;62385;41.594;23.808;2023-05-08T04:40:43;95726.06;;;12.94;75.80
24160;BME280;62385;41.594;23.808;2023-05-08T04:43:10;95735.91;;;13.17;74.51
24160;BME280;62385;41.594;23.808;2023-05-08T04:45:36;95736.19;;;13.22;75.54
24160;BME280;62385;41.594;23.808;2023-05-08T04:48:02;95727.84;;;13.25;74.70
24160;BME280;62385;41.594;23.808;2023-05-08T04:50:27;95732.72;;;13.36;74.42
24160;BME280;62385;41.594;23.808;2023-05-08T04:52:53;95732.56;;;13.52;73.86
24160;BME280;62385;41.594;23.808;2023-05-08T04:55:19;95730.09;;;13.65;73.02
24160;BME280;62385;41.594;23.808;2023-05-08T04:57:45;95734.31;;;13.74;73.16
24160;BME280;62385;41.594;23.808;2023-05-08T05:00:11;95733.28;;;13.75;73.26
24160;BME280;62385;41.594;23.808;2023-05-08T05:02:39;95736.81;;;13.91;72.65
24160;BME280;62385;41.594;23.808;2023-05-08T05:05:05;95730.53;;;13.98;72.39
24160;BME280;62385;41.594;23.808;2023-05-08T05:07:33;95723.72;;;14.10;72.49
24160;BME280;62385;41.594;23.808;2023-05-08T05:09:59;95734.28;;;14.18;72.13
24160;BME280;62385;41.594;23.808;2023-05-08T05:12:25;95726.97;;;13.91;73.31
24160;BME280;62385;41.594;23.808;2023-05-08T05:14:51;95727.59;;;14.08;73.05
24160;BME280;62385;41.594;23.808;2023-05-08T05:17:17;95728.94;;;14.18;72.96
24160;BME280;62385;41.594;23.808;2023-05-08T05:19:43;95722.88;;;14.24;72.11
24160;BME280;62385;41.594;23.808;2023-05-08T05:22:09;95723.03;;;14.23;72.44
24160;BME280;62385;41.594;23.808;2023-05-08T05:24:34;95726.66;;;14.15;72.72
24160;BME280;62385;41.594;23.808;2023-05-08T05:27:03;95722.66;;;14.26;71.89
24160;BME280;62385;41.594;23.808;2023-05-08T05:29:29;95718.84;;;14.50;71.88
24160;BME280;62385;41.594;23.808;2023-05-08T05:31:55;95714.25;;;13.93;74.08
24160;BME280;62385;41.594;23.808;2023-05-08T05:34:21;95712.97;;;14.25;72.84
24160;BME280;62385;41.594;23.808;2023-05-08T05:36:47;95702.19;;;14.33;72.41
24160;BME280;62385;41.594;23.808;2023-05-08T05:39:13;95713.06;;;14.46;72.17
24160;BME280;62385;41.594;23.808;2023-05-08T05:41:40;95702.25;;;14.54;71.97
24160;BME280;62385;41.594;23.808;2023-05-08T05:44:09;95703.53;;;14.79;70.73
24160;BME280;62385;41.594;23.808;2023-05-08T05:46:36;95705.25;;;14.87;71.20
24160;BME280;62385;41.594;23.808;2023-05-08T05:49:03;95703.41;;;14.88;70.89
24160;BME280;62385;41.594;23.808;2023-05-08T05:51:31;95702.56;;;15.08;70.08
24160;BME280;62385;41.594;23.808;2023-05-08T05:53:57;95698.72;;;15.45;69.28
24160;BME280;62385;41.594;23.808;2023-05-08T05:56:24;95697.09;;;15.44;68.98
24160;BME280;62385;41.594;23.808;2023-05-08T05:58:50;95693.91;;;15.34;69.54
24160;BME280;62385;41.594;23.808;2023-05-08T06:01:16;95690.94;;;15.22;69.69
24160;BME280;62385;41.594;23.808;2023-05-08T06:03:42;95685.28;;;15.32;69.13
24160;BME280;62385;41.594;23.808;2023-05-08T06:06:08;95694.34;;;15.38;68.66
24160;BME280;62385;41.594;23.808;2023-05-08T06:08:34;95686.13;;;15.39;66.70
24160;BME280;62385;41.594;23.808;2023-05-08T06:11:00;95681.63;;;15.74;67.07
24160;BME280;62385;41.594;23.808;2023-05-08T06:13:26;95664.84;;;15.52;67.50
24160;BME280;62385;41.594;23.808;2023-05-08T06:15:55;95685.13;;;15.68;67.34
24160;BME280;62385;41.594;23.808;2023-05-08T06:18:21;95677.19;;;15.94;66.98
24160;BME280;62385;41.594;23.808;2023-05-08T06:20:47;95669.88;;;16.09;66.64
24160;BME280;62385;41.594;23.808;2023-05-08T06:23:12;95666.41;;;16.29;65.97
24160;BME280;62385;41.594;23.808;2023-05-08T06:25:38;95674.09;;;16.38;65.84
24160;BME280;62385;41.594;23.808;2023-05-08T06:28:04;95675.47;;;16.28;65.75
24160;BME280;62385;41.594;23.808;2023-05-08T06:30:33;95662.91;;;16.22;65.30
24160;BME280;62385;41.594;23.808;2023-05-08T06:32:58;95667.06;;;16.37;65.49
24160;BME280;62385;41.594;23.808;2023-05-08T06:35:24;95657.91;;;16.73;64.65
24160;BME280;62385;41.594;23.808;2023-05-08T06:37:50;95657.91;;;16.86;64.76
24160;BME280;62385;41.594;23.808;2023-05-08T06:40:17;95657.06;;;16.66;65.36
24160;BME280;62385;41.594;23.808;2023-05-08T06:42:43;95658.94;;;16.98;64.51
24160;BME280;62385;41.594;23.808;2023-05-08T06:45:10;95650.47;;;16.68;63.94
24160;BME280;62385;41.594;23.808;2023-05-08T06:47:36;95651.75;;;16.85;64.60
24160;BME280;62385;41.594;23.808;2023-05-08T06:50:02;95638.31;;;17.12;63.32
24160;BME280;62385;41.594;23.808;2023-05-08T06:52:28;95645.13;;;17.21;63.00
24160;BME280;62385;41.594;23.808;2023-05-08T06:54:54;95638.31;;;17.25;63.14
24160;BME280;62385;41.594;23.808;2023-05-08T06:57:19;95643.25;;;17.08;62.83
24160;BME280;62385;41.594;23.808;2023-05-08T06:59:45;95638.09;;;17.06;63.66
24160;BME280;62385;41.594;23.808;2023-05-08T07:02:11;95634.78;;;16.98;63.43
24160;BME280;62385;41.594;23.808;2023-05-08T07:04:37;95636.22;;;17.33;61.66
24160;BME280;62385;41.594;23.808;2023-05-08T07:07:03;95637.66;;;17.42;61.57
24160;BME280;62385;41.594;23.808;2023-05-08T07:09:31;95630.66;;;17.28;62.00
24160;BME280;62385;41.594;23.808;2023-05-08T07:11:56;95635.31;;;17.79;60.93
24160;BME280;62385;41.594;23.808;2023-05-08T07:14:22;95640.97;;;17.31;62.05
24160;BME280;62385;41.594;23.808;2023-05-08T07:16:48;95639.56;;;17.22;61.49
24160;BME280;62385;41.594;23.808;2023-05-08T07:19:13;95629.63;;;17.23;60.84
24160;BME280;62385;41.594;23.808;2023-05-08T07:21:39;95621.59;;;17.29;60.88
24160;BME280;62385;41.594;23.808;2023-05-08T07:24:05;95630.22;;;17.31;61.21
24160;BME280;62385;41.594;23.808;2023-05-08T07:26:31;95621.47;;;17.88;59.16
24160;BME280;62385;41.594;23.808;2023-05-08T07:28:56;95629.88;;;17.98;58.65
24160;BME280;62385;41.594;23.808;2023-05-08T07:31:22;95612.16;;;18.29;56.46
24160;BME280;62385;41.594;23.808;2023-05-08T07:33:47;95628.19;;;18.55;56.52
24160;BME280;62385;41.594;23.808;2023-05-08T07:36:13;95613.13;;;18.03;56.47
24160;BME280;62385;41.594;23.808;2023-05-08T07:38:39;95621.09;;;18.23;57.19
24160;BME280;62385;41.594;23.808;2023-05-08T07:41:05;95617.47;;;18.04;56.16
24160;BME280;62385;41.594;23.808;2023-05-08T07:43:31;95621.66;;;18.31;56.46
24160;BME280;62385;41.594;23.808;2023-05-08T07:45:57;95619.63;;;18.65;56.32
24160;BME280;62385;41.594;23.808;2023-05-08T07:48:22;95612.22;;;18.16;58.91
24160;BME280;62385;41.594;23.808;2023-05-08T07:50:49;95615.38;;;18.06;58.18
24160;BME280;62385;41.594;23.808;2023-05-08T07:53:15;95609.03;;;18.38;57.05
24160;BME280;62385;41.594;23.808;2023-05-08T07:55:41;95615.13;;;18.14;57.42
24160;BME280;62385;41.594;23.808;2023-05-08T07:58:07;95617.22;;;18.50;56.32
24160;BME280;62385;41.594;23.808;2023-05-08T08:00:32;95600.72;;;19.03;54.47
24160;BME280;62385;41.594;23.808;2023-05-08T08:02:58;95603.97;;;18.49;55.80
24160;BME280;62385;41.594;23.808;2023-05-08T08:05:24;95594.56;;;18.33;56.11
24160;BME280;62385;41.594;23.808;2023-05-08T08:07:49;95591.50;;;18.23;57.93
24160;BME280;62385;41.594;23.808;2023-05-08T08:10:15;95595.31;;;18.47;57.25
24160;BME280;62385;41.594;23.808;2023-05-08T08:12:41;95595.47;;;18.52;55.71
24160;BME280;62385;41.594;23.808;2023-05-08T08:15:06;95595.09;;;18.55;56.29
24160;BME280;62385;41.594;23.808;2023-05-08T08:17:33;95586.91;;;18.92;57.05
24160;BME280;62385;41.594;23.808;2023-05-08T08:19:59;95574.81;;;18.83;56.04
24160;BME280;62385;41.594;23.808;2023-05-08T08:22:25;95589.44;;;18.63;56.96
24160;BME280;62385;41.594;23.808;2023-05-08T08:24:53;95574.53;;;18.29;56.93
24160;BME280;62385;41.594;23.808;2023-05-08T08:27:20;95581.84;;;18.53;57.97
24160;BME280;62385;41.594;23.808;2023-05-08T08:29:46;95560.53;;;18.20;56.32
24160;BME280;62385;41.594;23.808;2023-05-08T08:32:11;95571.75;;;18.11;57.77
24160;BME280;62385;41.594;23.808;2023-05-08T08:34:37;95566.47;;;18.29;56.16
24160;BME280;62385;41.594;23.808;2023-05-08T08:37:06;95555.66;;;18.42;55.25
24160;BME280;62385;41.594;23.808;2023-05-08T08:39:34;95553.38;;;18.39;55.65
24160;BME280;62385;41.594;23.808;2023-05-08T08:42:00;95550.47;;;18.72;55.03
24160;BME280;62385;41.594;23.808;2023-05-08T08:44:26;95547.25;;;18.63;56.34
24160;BME280;62385;41.594;23.808;2023-05-08T08:46:52;95545.00;;;18.22;57.06
24160;BME280;62385;41.594;23.808;2023-05-08T08:49:23;95534.59;;;18.64;55.32
24160;BME280;62385;41.594;23.808;2023-05-08T08:51:51;95544.78;;;18.86;56.02
24160;BME280;62385;41.594;23.808;2023-05-08T08:54:20;95531.22;;;19.18;55.35
24160;BME280;62385;41.594;23.808;2023-05-08T08:56:49;95544.91;;;19.16;56.40
24160;BME280;62385;41.594;23.808;2023-05-08T08:59:17;95533.03;;;19.42;54.73
24160;BME280;62385;41.594;23.808;2023-05-08T09:01:46;95529.25;;;19.50;55.86
24160;BME280;62385;41.594;23.808;2023-05-08T09:04:12;95523.25;;;19.66;53.27
24160;BME280;62385;41.594;23.808;2023-05-08T09:06:38;95518.44;;;19.31;54.39
24160;BME280;62385;41.594;23.808;2023-05-08T09:09:05;95512.50;;;19.96;53.64
24160;BME280;62385;41.594;23.808;2023-05-08T09:11:31;95512.03;;;19.51;53.86
24160;BME280;62385;41.594;23.808;2023-05-08T09:13:57;95503.53;;;19.54;52.74
24160;BME280;62385;41.594;23.808;2023-05-08T09:16:23;95494.59;;;20.31;51.27
24160;BME280;62385;41.594;23.808;2023-05-08T09:18:49;95488.38;;;20.31;51.89
24160;BME280;62385;41.594;23.808;2023-05-08T09:21:15;95488.88;;;20.09;52.81
24160;BME280;62385;41.594;23.808;2023-05-08T09:24:00;95490.94;;;19.66;52.91
24160;BME280;62385;41.594;23.808;2023-05-08T09:26:32;95472.66;;;20.27;53.99
24160;BME280;62385;41.594;23.808;2023-05-08T09:29:18;95479.38;;;20.37;52.24
24160;BME280;62385;41.594;23.808;2023-05-08T09:31:50;95483.44;;;20.27;52.29
24160;BME280;62385;41.594;23.808;2023-05-08T09:39:34;95463.81;;;20.85;52.42
24160;BME280;62385;41.594;23.808;2023-05-08T09:42:02;95472.16;;;21.18;50.80
24160;BME280;62385;41.594;23.808;2023-05-08T09:44:43;95473.69;;;21.14;50.14
24160;BME280;62385;41.594;23.808;2023-05-08T09:47:15;95468.72;;;21.35;50.89
24160;BME280;62385;41.594;23.808;2023-05-08T09:52:21;95466.97;;;21.40;48.35
24160;BME280;62385;41.594;23.808;2023-05-08T09:54:48;95468.59;;;21.41;49.38
24160;BME280;62385;41.594;23.808;2023-05-08T09:57:21;95465.44;;;21.33;49.67
24160;BME280;62385;41.594;23.808;2023-05-08T09:59:47;95462.53;;;21.23;50.42
24160;BME280;62385;41.594;23.808;2023-05-08T10:02:13;95461.34;;;20.84;50.80
24160;BME280;62385;41.594;23.808;2023-05-08T10:04:41;95458.53;;;21.13;50.65
24160;BME280;62385;41.594;23.808;2023-05-08T10:07:07;95461.94;;;21.32;50.39
24160;BME280;62385;41.594;23.808;2023-05-08T10:09:32;95449.38;;;21.26;50.82
24160;BME280;62385;41.594;23.808;2023-05-08T10:11:58;95446.34;;;21.23;49.63
24160;BME280;62385;41.594;23.808;2023-05-08T10:14:24;95436.72;;;21.55;47.34
24160;BME280;62385;41.594;23.808;2023-05-08T10:16:51;95432.59;;;21.64;48.84
24160;BME280;62385;41.594;23.808;2023-05-08T10:19:19;95431.72;;;22.03;46.58
24160;BME280;62385;41.594;23.808;2023-05-08T10:21:51;95428.28;;;22.08;48.73
24160;BME280;62385;41.594;23.808;2023-05-08T10:24:19;95429.56;;;22.34;47.63
24160;BME280;62385;41.594;23.808;2023-05-08T10:29:40;95422.50;;;22.49;45.85
24160;BME280;62385;41.594;23.808;2023-05-08T10:32:11;95428.50;;;22.35;45.77
24160;BME280;62385;41.594;23.808;2023-05-08T10:34:40;95422.97;;;21.96;45.77
24160;BME280;62385;41.594;23.808;2023-05-08T10:37:09;95421.94;;;22.14;45.77
24160;BME280;62385;41.594;23.808;2023-05-08T10:39:36;95413.25;;;22.29;46.84
24160;BME280;62385;41.594;23.808;2023-05-08T10:42:03;95411.94;;;22.15;45.37
24160;BME280;62385;41.594;23.808;2023-05-08T10:44:29;95410.72;;;22.39;45.99
24160;BME280;62385;41.594;23.808;2023-05-08T10:47:32;95405.19;;;22.67;45.82
24160;BME280;62385;41.594;23.808;2023-05-08T10:52:33;95399.25;;;22.48;46.67
24160;BME280;62385;41.594;23.808;2023-05-08T10:58:05;95387.28;;;22.11;46.82
24160;BME280;62385;41.594;23.808;2023-05-08T11:03:23;95380.03;;;22.50;46.50
24160;BME280;62385;41.594;23.808;2023-05-08T11:05:50;95380.38;;;22.70;44.38
24160;BME280;62385;41.594;23.808;2023-05-08T11:08:18;95374.38;;;23.28;41.58
24160;BME280;62385;41.594;23.808;2023-05-08T11:10:50;95380.09;;;22.88;43.47
24160;BME280;62385;41.594;23.808;2023-05-08T11:13:17;95366.69;;;22.60;40.96
24160;BME280;62385;41.594;23.808;2023-05-08T11:15:49;95360.69;;;22.41;41.04
24160;BME280;62385;41.594;23.808;2023-05-08T11:18:16;95372.25;;;22.20;40.90
24160;BME280;62385;41.594;23.808;2023-05-08T11:20:54;95354.66;;;23.81;38.78
24160;BME280;62385;41.594;23.808;2023-05-08T11:23:31;95354.22;;;23.19;39.66
24160;BME280;62385;41.594;23.808;2023-05-08T11:26:05;95347.72;;;23.90;37.97
24160;BME280;62385;41.594;23.808;2023-05-08T11:28:33;95345.09;;;24.01;37.26
24160;BME280;62385;41.594;23.808;2023-05-08T11:31:06;95338.69;;;24.44;38.23
24160;BME280;62385;41.594;23.808;2023-05-08T11:33:35;95338.28;;;24.25;37.11
24160;BME280;62385;41.594;23.808;2023-05-08T11:36:20;95338.81;;;24.22;37.96
24160;BME280;62385;41.594;23.808;2023-05-08T11:39:07;95337.16;;;25.00;38.27
24160;BME280;62385;41.594;23.808;2023-05-08T11:41:33;95340.81;;;24.78;36.83
24160;BME280;62385;41.594;23.808;2023-05-08T11:49:00;95354.75;;;22.61;42.21
24160;BME280;62385;41.594;23.808;2023-05-08T11:51:32;95352.59;;;22.25;44.13
24160;BME280;62385;41.594;23.808;2023-05-08T11:54:01;95368.25;;;21.49;44.83
24160;BME280;62385;41.594;23.808;2023-05-08T11:56:28;95409.25;;;20.95;46.67
24160;BME280;62385;41.594;23.808;2023-05-08T11:59:02;95428.59;;;18.28;61.94
24160;BME280;62385;41.594;23.808;2023-05-08T12:01:29;95460.22;;;17.57;65.36
24160;BME280;62385;41.594;23.808;2023-05-08T12:04:05;95451.72;;;18.05;63.49
24160;BME280;62385;41.594;23.808;2023-05-08T12:06:33;95476.66;;;18.12;67.98
24160;BME280;62385;41.594;23.808;2023-05-08T12:09:01;95484.41;;;17.57;70.44
24160;BME280;62385;41.594;23.808;2023-05-08T12:11:29;95492.69;;;17.56;72.72
24160;BME280;62385;41.594;23.808;2023-05-08T12:13:54;95489.19;;;16.84;73.70
24160;BME280;62385;41.594;23.808;2023-05-08T12:16:22;95480.31;;;16.25;79.74
24160;BME280;62385;41.594;23.808;2023-05-08T12:18:50;95472.91;;;16.53;76.44
24160;BME280;62385;41.594;23.808;2023-05-08T12:21:16;95487.84;;;17.20;74.99
24160;BME280;62385;41.594;23.808;2023-05-08T12:23:42;95466.38;;;17.20;67.24
24160;BME280;62385;41.594;23.808;2023-05-08T12:26:08;95448.81;;;17.30;71.24
24160;BME280;62385;41.594;23.808;2023-05-08T12:28:34;95458.19;;;17.08;74.16
24160;BME280;62385;41.594;23.808;2023-05-08T12:31:00;95454.94;;;16.93;72.00
24160;BME280;62385;41.594;23.808;2023-05-08T12:33:26;95451.88;;;16.37;77.62
24160;BME280;62385;41.594;23.808;2023-05-08T12:35:57;95446.31;;;16.45;77.80
24160;BME280;62385;41.594;23.808;2023-05-08T12:38:27;95447.47;;;16.95;78.31
24160;BME280;62385;41.594;23.808;2023-05-08T12:40:53;95463.59;;;16.88;75.07
24160;BME280;62385;41.594;23.808;2023-05-08T12:43:32;95458.59;;;16.98;70.06
24160;BME280;62385;41.594;23.808;2023-05-08T12:45:59;95465.41;;;17.07;70.41
24160;BME280;62385;41.594;23.808;2023-05-08T12:48:25;95460.19;;;17.26;68.79
24160;BME280;62385;41.594;23.808;2023-05-08T12:50:52;95442.22;;;17.26;70.18
24160;BME280;62385;41.594;23.808;2023-05-08T12:53:21;95438.88;;;17.37;68.91
24160;BME280;62385;41.594;23.808;2023-05-08T12:55:55;95431.41;;;17.46;69.73
24160;BME280;62385;41.594;23.808;2023-05-08T12:58:26;95445.31;;;17.74;69.76
24160;BME280;62385;41.594;23.808;2023-05-08T13:01:01;95440.44;;;17.58;73.55
24160;BME280;62385;41.594;23.808;2023-05-08T13:03:28;95430.47;;;17.72;74.97
24160;BME280;62385;41.594;23.808;2023-05-08T13:05:56;95424.06;;;18.22;73.15
24160;BME280;62385;41.594;23.808;2023-05-08T13:08:36;95415.25;;;19.01;72.68
24160;BME280;62385;41.594;23.808;2023-05-08T13:11:04;95410.28;;;19.05;71.73
24160;BME280;62385;41.594;23.808;2023-05-08T13:13:33;95408.38;;;19.42;72.15
24160;BME280;62385;41.594;23.808;2023-05-08T13:16:04;95405.53;;;19.36;70.71
24160;BME280;62385;41.594;23.808;2023-05-08T13:18:31;95414.66;;;19.54;69.63
24160;BME280;62385;41.594;23.808;2023-05-08T13:20:57;95415.19;;;19.44;66.42
24160;BME280;62385;41.594;23.808;2023-05-08T13:23:23;95410.50;;;19.21;69.53
24160;BME280;62385;41.594;23.808;2023-05-08T13:25:48;95396.06;;;20.05;69.09
24160;BME280;62385;41.594;23.808;2023-05-08T13:28:14;95395.66;;;19.30;68.39
24160;BME280;62385;41.594;23.808;2023-05-08T13:30:40;95398.94;;;19.32;69.64
24160;BME280;62385;41.594;23.808;2023-05-08T13:33:06;95396.50;;;20.32;66.79
24160;BME280;62385;41.594;23.808;2023-05-08T13:35:33;95391.06;;;20.20;67.92
24160;BME280;62385;41.594;23.808;2023-05-08T13:38:01;95398.91;;;19.69;69.20
24160;BME280;62385;41.594;23.808;2023-05-08T13:40:27;95385.59;;;19.56;67.71
24160;BME280;62385;41.594;23.808;2023-05-08T13:42:52;95389.47;;;19.60;68.19
24160;BME280;62385;41.594;23.808;2023-05-08T13:45:18;95384.28;;;19.76;66.73
24160;BME280;62385;41.594;23.808;2023-05-08T13:47:47;95399.19;;;19.91;65.84
24160;BME280;62385;41.594;23.808;2023-05-08T13:50:14;95400.66;;;21.09;63.44
24160;BME280;62385;41.594;23.808;2023-05-08T13:52:40;95384.91;;;21.86;62.54
24160;BME280;62385;41.594;23.808;2023-05-08T13:55:12;95391.06;;;20.90;65.06
24160;BME280;62385;41.594;23.808;2023-05-08T13:57:39;95387.91;;;20.82;67.24